createdAt,value
2022-12-14T00:01:35.113Z,-4.31
2022-12-14T00:14:49.224Z,-4.61
2022-12-14T00:18:16.756Z,-4.16
2022-12-14T00:24:18.085Z,-4.19
2022-12-14T00:27:43.059Z,-3.73
2022-12-14T00:30:43.381Z,-4.29
2022-12-14T00:37:25.630Z,-4.71
2022-12-14T00:40:53.219Z,-4.79
2022-12-14T00:57:33.014Z,-4.67
2022-12-14T01:00:41.461Z,-4.58
2022-12-14T01:10:17.575Z,-3.66
2022-12-14T01:28:52.507Z,-4.08
2022-12-14T01:45:56.158Z,-4.07
2022-12-14T02:03:57.823Z,-3.31
2022-12-14T02:07:10.363Z,-3.46
2022-12-14T02:13:16.363Z,-3.95
2022-12-14T02:19:15.416Z,-3.56
2022-12-14T02:26:21.273Z,-3.64
2022-12-14T02:30:02.848Z,-3.40
2022-12-14T02:37:49.532Z,-3.26
2022-12-14T02:40:15.770Z,-3.35
2022-12-14T02:54:35.158Z,-4.56
2022-12-14T03:20:58.037Z,-3.95
2022-12-14T03:31:32.729Z,-3.95
2022-12-14T03:38:18.805Z,-3.36
2022-12-14T03:45:57.398Z,-4.42
2022-12-14T03:49:28.326Z,-3.87
2022-12-14T03:56:38.393Z,-3.33
2022-12-14T04:00:23.914Z,-3.88
2022-12-14T04:08:15.961Z,-3.41
2022-12-14T04:15:32.114Z,-4.34
2022-12-14T04:19:06.893Z,-4.41
2022-12-14T04:22:23.922Z,-4.27
2022-12-14T04:26:28.643Z,-4.00
2022-12-14T04:33:00.554Z,-3.22
2022-12-14T04:43:44.424Z,-4.08
2022-12-14T04:46:31.096Z,-3.68
2022-12-14T04:56:25.848Z,-3.25
2022-12-14T05:09:34.523Z,-3.59
2022-12-14T05:12:44.228Z,-3.82
2022-12-14T05:16:16.138Z,-3.34
2022-12-14T05:19:00.838Z,-4.02
2022-12-14T05:25:37.063Z,-3.19
2022-12-14T05:30:04.419Z,-3.43
2022-12-14T05:32:14.733Z,-3.78
2022-12-14T05:35:07.397Z,-3.71
2022-12-14T05:38:40.574Z,-4.07
2022-12-14T05:41:46.996Z,-3.07
2022-12-14T05:51:49.117Z,-3.84
2022-12-14T05:54:46.317Z,-3.52
2022-12-14T05:57:53.344Z,-3.75
2022-12-14T06:04:06.148Z,-3.75
2022-12-14T06:07:45.184Z,-3.64
2022-12-14T06:10:52.217Z,-4.13
2022-12-14T06:13:45.128Z,-3.73
2022-12-14T06:16:50.867Z,-3.06
2022-12-14T06:22:42.789Z,-2.98
2022-12-14T06:25:58.689Z,-3.45
2022-12-14T06:28:48.036Z,-3.01
2022-12-14T06:31:57.199Z,-3.95
2022-12-14T06:35:14.879Z,-2.96
2022-12-14T06:41:34.133Z,-3.04
2022-12-14T06:50:52.853Z,-3.62
2022-12-14T06:54:23.799Z,-3.22
2022-12-14T07:04:51.508Z,-3.71
2022-12-14T07:12:26.879Z,-3.81
2022-12-14T07:15:34.022Z,-2.87
2022-12-14T07:22:07.217Z,-3.88
2022-12-14T07:39:35.233Z,-3.23
2022-12-14T07:43:32.575Z,-2.57
2022-12-14T08:17:04.707Z,-2.33
2022-12-14T08:24:25.258Z,-2.19
2022-12-14T08:37:28.738Z,-2.13
2022-12-14T08:40:18.899Z,-3.17
2022-12-14T08:43:23.471Z,-2.60
2022-12-14T08:49:14.779Z,-1.85
2022-12-14T08:51:54.764Z,-2.60
2022-12-14T08:55:18.109Z,-2.86
2022-12-14T08:58:06.988Z,-2.80
2022-12-14T09:10:23.126Z,-2.54
2022-12-14T09:13:31.908Z,-2.25
2022-12-14T09:16:32.518Z,-2.28
2022-12-14T09:19:09.012Z,-2.23
2022-12-14T09:21:51.348Z,-2.58
2022-12-14T09:24:43.423Z,-1.60
2022-12-14T09:30:43.588Z,-1.93
2022-12-14T09:34:06.624Z,-1.36
2022-12-14T09:37:16.927Z,-1.81
2022-12-14T09:40:31.349Z,-1.73
2022-12-14T09:43:51.179Z,-1.08
2022-12-14T09:47:36.852Z,-0.95
2022-12-14T09:50:37.102Z,-1.30
2022-12-14T09:53:41.588Z,-1.78
2022-12-14T09:56:39.151Z,-1.42
2022-12-14T09:59:54.244Z,-1.25
2022-12-14T10:03:31.010Z,-1.82
2022-12-14T10:07:15.168Z,-1.01
2022-12-14T10:10:18.232Z,-1.23
2022-12-14T10:13:13.778Z,-1.20
2022-12-14T10:16:51.813Z,-1.47
2022-12-14T10:20:05.267Z,-1.03
2022-12-14T10:23:29.871Z,-1.37
2022-12-14T10:26:33.968Z,-1.38
2022-12-14T10:30:04.258Z,-1.45
2022-12-14T10:32:42.881Z,-1.36
2022-12-14T10:39:58.714Z,-1.37
2022-12-14T10:46:51.379Z,-0.54
2022-12-14T10:50:17.565Z,-0.72
2022-12-14T10:53:43.464Z,-1.17
2022-12-14T11:00:09.564Z,-0.51
2022-12-14T11:03:32.244Z,-0.31
2022-12-14T11:06:37.376Z,-0.38
2022-12-14T11:16:36.397Z,-0.97
2022-12-14T11:19:43.901Z,-1.17
2022-12-14T11:22:22.192Z,-1.36
2022-12-14T11:24:57.477Z,-1.29
2022-12-14T11:31:39.919Z,-0.85
2022-12-14T11:34:38.798Z,-0.25
2022-12-14T11:37:40.459Z,-0.38
2022-12-14T11:40:31.558Z,-0.82
2022-12-14T11:49:56.973Z,-0.47
2022-12-14T11:55:47.719Z,-0.91
2022-12-14T12:05:08.668Z,-0.45
2022-12-14T12:07:57.106Z,-0.46
2022-12-14T12:11:01.780Z,-0.42
2022-12-14T12:14:01.214Z,-0.50
2022-12-14T12:19:43.396Z,0.01
2022-12-14T12:22:45.398Z,-0.24
2022-12-14T12:25:39.957Z,-0.38
2022-12-14T12:28:46.909Z,-0.26
2022-12-14T12:31:28.693Z,-0.58
2022-12-14T12:34:26.315Z,0.16
2022-12-14T12:37:32.120Z,0.21
2022-12-14T12:47:22.378Z,-0.23
2022-12-14T12:56:13.702Z,-0.54
2022-12-14T12:59:11.432Z,-0.11
2022-12-14T13:01:44.331Z,0.23
2022-12-14T13:05:22.366Z,-0.04
2022-12-14T13:08:00.846Z,-0.08
2022-12-14T13:13:56.696Z,-0.28
2022-12-14T13:16:55.692Z,0.18
2022-12-14T13:23:05.725Z,0.04
2022-12-14T13:26:56.298Z,0.64
2022-12-14T13:29:41.949Z,0.44
2022-12-14T13:33:01.635Z,0.14
2022-12-14T13:35:59.515Z,0.93
2022-12-14T13:39:10.879Z,0.54
2022-12-14T13:41:57.496Z,0.86
2022-12-14T13:44:49.450Z,0.88
2022-12-14T13:47:20.652Z,0.48
2022-12-14T13:50:26.319Z,0.72
2022-12-14T13:52:46.743Z,0.67
2022-12-14T13:55:25.384Z,0.80
2022-12-14T13:57:53.351Z,0.63
2022-12-14T14:01:07.864Z,0.87
2022-12-14T14:03:34.828Z,0.82
2022-12-14T14:06:33.933Z,0.58
2022-12-14T14:09:26.896Z,0.82
2022-12-14T14:12:32.678Z,0.88
2022-12-14T14:15:08.636Z,0.88
2022-12-14T14:17:42.786Z,0.72
2022-12-14T14:20:38.201Z,0.97
2022-12-14T14:23:13.852Z,0.95
2022-12-14T14:25:45.738Z,0.79
2022-12-14T14:28:23.097Z,0.97
2022-12-14T14:31:01.881Z,1.01
2022-12-14T14:33:47.304Z,0.83
2022-12-14T14:36:27.055Z,0.88
2022-12-14T14:38:56.411Z,0.84
2022-12-14T14:41:28.263Z,0.88
2022-12-14T14:44:03.044Z,1.14
2022-12-14T14:46:45.946Z,0.88
2022-12-14T14:49:42.100Z,1.30
2022-12-14T14:52:39.780Z,1.35
2022-12-14T14:58:22.773Z,1.47
2022-12-14T15:00:54.787Z,1.58
2022-12-14T15:03:28.704Z,1.60
2022-12-14T15:05:57.368Z,1.52
2022-12-14T15:08:43.467Z,1.61
2022-12-14T15:11:22.788Z,1.56
2022-12-14T15:14:14.092Z,1.55
2022-12-14T15:16:44.303Z,1.39
2022-12-14T15:19:34.250Z,1.37
2022-12-14T15:22:06.117Z,1.38
2022-12-14T15:24:42.236Z,1.54
2022-12-14T15:27:24.120Z,1.42
2022-12-14T15:29:51.551Z,1.51
2022-12-14T15:32:24.816Z,1.64
2022-12-14T15:34:58.262Z,1.30
2022-12-14T15:37:27.020Z,1.36
2022-12-14T15:40:02.427Z,1.29
2022-12-14T15:42:31.823Z,1.20
2022-12-14T15:45:07.423Z,1.72
2022-12-14T15:47:34.309Z,1.54
2022-12-14T15:50:32.194Z,1.74
2022-12-14T15:53:12.627Z,1.59
2022-12-14T15:55:42.853Z,1.62
2022-12-14T15:58:35.139Z,1.62
2022-12-14T16:01:20.064Z,1.76
2022-12-14T16:03:51.800Z,1.54
2022-12-14T16:06:19.908Z,1.53
2022-12-14T16:09:21.023Z,1.80
2022-12-14T16:11:52.213Z,1.32
2022-12-14T16:14:24.930Z,1.77
2022-12-14T16:24:50.422Z,1.78
2022-12-14T16:27:31.168Z,1.77
2022-12-14T16:30:21.005Z,0.74
2022-12-14T16:33:24.711Z,1.83
2022-12-14T16:36:31.989Z,1.16
2022-12-14T16:43:33.740Z,0.82
2022-12-14T16:46:47.216Z,1.82
2022-12-14T16:50:00.380Z,1.29
2022-12-14T16:53:04.237Z,1.86
2022-12-14T16:56:43.529Z,0.83
2022-12-14T16:59:38.463Z,0.89
2022-12-14T17:02:31.368Z,0.88
2022-12-14T17:05:28.360Z,1.25
2022-12-14T17:07:59.078Z,1.19
2022-12-14T17:10:26.995Z,1.22
2022-12-14T17:12:58.961Z,1.72
2022-12-14T17:15:27.592Z,1.93
2022-12-14T17:17:56.492Z,1.85
2022-12-14T17:20:29.198Z,1.44
2022-12-14T17:22:58.729Z,1.62
2022-12-14T17:25:31.160Z,1.08
2022-12-14T17:27:59.706Z,0.79
2022-12-14T17:30:26.360Z,1.85
2022-12-14T17:32:54.355Z,1.86
2022-12-14T17:35:39.112Z,1.78
2022-12-14T17:38:13.126Z,1.73
2022-12-14T17:40:40.148Z,1.78
2022-12-14T17:43:13.278Z,1.02
2022-12-14T17:45:40.102Z,1.15
2022-12-14T17:48:19.146Z,1.30
2022-12-14T17:50:49.859Z,1.83
2022-12-14T17:53:26.462Z,1.13
2022-12-14T17:56:00.233Z,0.86
